EQX879 LFMN-LROP
Flight info
| Callsign | EQX879 |
|---|---|
| Flight time | 2h 3m |
| Altitude | 38000 |
| Route | BASIP DCT ANAKI DCT NIKOL/N0431F390 DCT VELIP DCT TOSVI |
| Aircraft | A320/M-SDE3FGHIRWY/LB1 |
Departure
| Time | 2026-05-05 19:45 |
|---|---|
| Airport | Nice-Côte d'Azur Airport (LFMN) |
Arrival
| Time | 2026-05-05 21:48 |
|---|---|
| Airport | Bucharest Henri Coandă International Airport (LROP) |
| Time | Latitude | Longitude | Altitude | Speed | Heading |
|---|---|---|---|---|---|
| 2026-05-05 19:24 | 43.66473 | 7.21739 | 22 ft | 0 kts | 134° |
| 2026-05-05 19:35 | 43.66480 | 7.21730 | 23 ft | 2 kts | 134° |
| 2026-05-05 19:35 | 43.66486 | 7.21721 | 24 ft | 1 kts | 134° |
| 2026-05-05 19:36 | 43.66486 | 7.21720 | 24 ft | 2 kts | 134° |
| 2026-05-05 19:36 | 43.66485 | 7.21723 | 24 ft | 0 kts | 134° |
| 2026-05-05 19:36 | 43.66486 | 7.21721 | 24 ft | 0 kts | 134° |
| 2026-05-05 19:36 | 43.66480 | 7.21729 | 23 ft | 6 kts | 136° |
| 2026-05-05 19:37 | 43.66367 | 7.21721 | 23 ft | 27 kts | 229° |
| 2026-05-05 19:37 | 43.66223 | 7.21516 | 22 ft | 33 kts | 225° |
| 2026-05-05 19:37 | 43.66051 | 7.21283 | 22 ft | 37 kts | 224° |
| 2026-05-05 19:37 | 43.65855 | 7.21031 | 22 ft | 40 kts | 226° |
| 2026-05-05 19:38 | 43.65680 | 7.20774 | 22 ft | 39 kts | 224° |
| 2026-05-05 19:38 | 43.65478 | 7.20515 | 22 ft | 42 kts | 221° |
| 2026-05-05 19:38 | 43.65393 | 7.20406 | 22 ft | 5 kts | 230° |
| 2026-05-05 19:38 | 43.65368 | 7.20358 | 23 ft | 0 kts | 234° |
| 2026-05-05 19:39 | 43.65365 | 7.20352 | 22 ft | 3 kts | 233° |
| 2026-05-05 19:39 | 43.65344 | 7.20316 | 22 ft | 7 kts | 229° |
| 2026-05-05 19:39 | 43.65295 | 7.20282 | 22 ft | 10 kts | 168° |
| 2026-05-05 19:39 | 43.65234 | 7.20360 | 22 ft | 14 kts | 133° |
| 2026-05-05 19:40 | 43.65160 | 7.20467 | 22 ft | 19 kts | 137° |
| 2026-05-05 19:40 | 43.65128 | 7.20505 | 22 ft | 0 kts | 139° |
| 2026-05-05 19:41 | 43.65116 | 7.20518 | 22 ft | 4 kts | 143° |
| 2026-05-05 19:41 | 43.65077 | 7.20524 | 22 ft | 8 kts | 181° |
| 2026-05-05 19:41 | 43.65012 | 7.20501 | 24 ft | 12 kts | 217° |
| 2026-05-05 19:41 | 43.64946 | 7.20404 | 22 ft | 16 kts | 226° |
| 2026-05-05 19:42 | 43.64855 | 7.20283 | 22 ft | 19 kts | 210° |
| 2026-05-05 19:42 | 43.64825 | 7.20275 | 22 ft | 0 kts | 181° |
| 2026-05-05 19:43 | 43.64824 | 7.20275 | 22 ft | 1 kts | 181° |
| 2026-05-05 19:43 | 43.64807 | 7.20285 | 23 ft | 5 kts | 157° |
| 2026-05-05 19:43 | 43.64772 | 7.20329 | 22 ft | 9 kts | 120° |
| 2026-05-05 19:44 | 43.64797 | 7.20417 | 22 ft | 13 kts | 46° |
| 2026-05-05 19:44 | 43.64972 | 7.20664 | 22 ft | 77 kts | 44° |
| 2026-05-05 19:44 | 43.65536 | 7.21434 | 28 ft | 146 kts | 44° |
| 2026-05-05 19:44 | 43.66341 | 7.22515 | 432 ft | 171 kts | 42° |
| 2026-05-05 19:45 | 43.67242 | 7.23737 | 1062 ft | 189 kts | 49° |
| 2026-05-05 19:45 | 43.67842 | 7.25385 | 1800 ft | 208 kts | 86° |
| 2026-05-05 19:45 | 43.67484 | 7.27167 | 2654 ft | 218 kts | 126° |
| 2026-05-05 19:45 | 43.66387 | 7.28631 | 3771 ft | 221 kts | 143° |
| 2026-05-05 19:46 | 43.65146 | 7.29898 | 4961 ft | 223 kts | 146° |
| 2026-05-05 19:46 | 43.64013 | 7.31152 | 6014 ft | 228 kts | 133° |
| 2026-05-05 19:46 | 43.63397 | 7.33192 | 7036 ft | 241 kts | 95° |
| 2026-05-05 19:46 | 43.63585 | 7.35326 | 8037 ft | 247 kts | 76° |
| 2026-05-05 19:47 | 43.64140 | 7.37597 | 9127 ft | 253 kts | 69° |
| 2026-05-05 19:47 | 43.64810 | 7.39840 | 9695 ft | 261 kts | 68° |
| 2026-05-05 19:47 | 43.65478 | 7.42024 | 9888 ft | 262 kts | 68° |
| 2026-05-05 19:47 | 43.66168 | 7.44351 | 9942 ft | 262 kts | 69° |
| 2026-05-05 19:48 | 43.66832 | 7.46689 | 9942 ft | 262 kts | 70° |
| 2026-05-05 19:48 | 43.67470 | 7.49020 | 9946 ft | 262 kts | 71° |
| 2026-05-05 19:48 | 43.68152 | 7.51558 | 10188 ft | 299 kts | 71° |
| 2026-05-05 19:48 | 43.68864 | 7.54211 | 10701 ft | 324 kts | 71° |
| 2026-05-05 19:49 | 43.69649 | 7.57148 | 11180 ft | 349 kts | 71° |
| 2026-05-05 19:49 | 43.70227 | 7.59318 | 11467 ft | 365 kts | 71° |
| 2026-05-05 19:49 | 43.71412 | 7.63790 | 12418 ft | 381 kts | 71° |
| 2026-05-05 19:49 | 43.72331 | 7.67256 | 13266 ft | 388 kts | 71° |
| 2026-05-05 19:50 | 43.73386 | 7.70731 | 14069 ft | 397 kts | 63° |
| 2026-05-05 19:50 | 43.74993 | 7.73880 | 14829 ft | 405 kts | 49° |
| 2026-05-05 19:50 | 43.76871 | 7.76822 | 15549 ft | 410 kts | 49° |
| 2026-05-05 19:50 | 43.78773 | 7.79784 | 15850 ft | 413 kts | 49° |
| 2026-05-05 19:51 | 43.80681 | 7.82758 | 15940 ft | 414 kts | 49° |
| 2026-05-05 19:51 | 43.82591 | 7.85737 | 15958 ft | 414 kts | 49° |
| 2026-05-05 19:51 | 43.84506 | 7.88730 | 15958 ft | 414 kts | 49° |
| 2026-05-05 19:51 | 43.86409 | 7.91716 | 15956 ft | 414 kts | 49° |
| 2026-05-05 19:52 | 43.88309 | 7.94719 | 15957 ft | 414 kts | 51° |
| 2026-05-05 19:52 | 43.89974 | 7.98002 | 16144 ft | 420 kts | 62° |
| 2026-05-05 19:52 | 43.91391 | 8.01547 | 17031 ft | 421 kts | 63° |
| 2026-05-05 19:52 | 43.92835 | 8.05105 | 17863 ft | 426 kts | 62° |
| 2026-05-05 19:53 | 43.94146 | 8.08301 | 18533 ft | 430 kts | 62° |
| 2026-05-05 19:53 | 43.95640 | 8.11936 | 19245 ft | 435 kts | 62° |
| 2026-05-05 19:53 | 43.97144 | 8.15593 | 19938 ft | 439 kts | 62° |
| 2026-05-05 19:53 | 43.98664 | 8.19301 | 20656 ft | 444 kts | 62° |
| 2026-05-05 19:54 | 44.00187 | 8.23032 | 21318 ft | 448 kts | 63° |
| 2026-05-05 19:54 | 44.01733 | 8.26833 | 21958 ft | 453 kts | 63° |
| 2026-05-05 19:54 | 44.03284 | 8.30663 | 22600 ft | 457 kts | 63° |
| 2026-05-05 19:54 | 44.04845 | 8.34533 | 23245 ft | 461 kts | 63° |
| 2026-05-05 19:55 | 44.06342 | 8.38251 | 23781 ft | 466 kts | 63° |
| 2026-05-05 19:55 | 44.07873 | 8.42051 | 24264 ft | 471 kts | 63° |
| 2026-05-05 19:55 | 44.09484 | 8.46042 | 24721 ft | 476 kts | 63° |
| 2026-05-05 19:55 | 44.11109 | 8.50072 | 25191 ft | 481 kts | 63° |
| 2026-05-05 19:56 | 44.12615 | 8.53813 | 25609 ft | 486 kts | 63° |
| 2026-05-05 19:56 | 44.14272 | 8.57941 | 26059 ft | 491 kts | 63° |
| 2026-05-05 19:56 | 44.15944 | 8.62122 | 26514 ft | 496 kts | 63° |
| 2026-05-05 19:56 | 44.17229 | 8.66266 | 26938 ft | 496 kts | 77° |
| 2026-05-05 19:57 | 44.17813 | 8.70894 | 27375 ft | 493 kts | 91° |
| 2026-05-05 19:57 | 44.17921 | 8.74052 | 27671 ft | 495 kts | 92° |
| 2026-05-05 19:57 | 44.18104 | 8.80129 | 28242 ft | 501 kts | 93° |
| 2026-05-05 19:57 | 44.18245 | 8.85018 | 28686 ft | 506 kts | 93° |
| 2026-05-05 19:58 | 44.18383 | 8.89936 | 29120 ft | 511 kts | 93° |
| 2026-05-05 19:58 | 44.18510 | 8.94446 | 29521 ft | 516 kts | 93° |
| 2026-05-05 19:58 | 44.18653 | 8.99466 | 29961 ft | 521 kts | 93° |
| 2026-05-05 19:58 | 44.18786 | 9.04226 | 30324 ft | 525 kts | 93° |
| 2026-05-05 19:59 | 44.18924 | 9.09190 | 30822 ft | 525 kts | 93° |
| 2026-05-05 19:59 | 44.19067 | 9.14274 | 31428 ft | 524 kts | 93° |
| 2026-05-05 19:59 | 44.19205 | 9.19344 | 32032 ft | 523 kts | 93° |
| 2026-05-05 19:59 | 44.19332 | 9.24111 | 32604 ft | 522 kts | 94° |
| 2026-05-05 20:00 | 44.19457 | 9.29005 | 33191 ft | 521 kts | 94° |
| 2026-05-05 20:00 | 44.19582 | 9.34056 | 33821 ft | 521 kts | 94° |
| 2026-05-05 20:00 | 44.19697 | 9.38705 | 34334 ft | 520 kts | 94° |
| 2026-05-05 20:00 | 44.19815 | 9.43722 | 34921 ft | 518 kts | 93° |
| 2026-05-05 20:01 | 44.19933 | 9.48733 | 35546 ft | 515 kts | 92° |
| 2026-05-05 20:01 | 44.20039 | 9.53290 | 36116 ft | 513 kts | 92° |
| 2026-05-05 20:01 | 44.20151 | 9.58237 | 36760 ft | 510 kts | 92° |
| 2026-05-05 20:01 | 44.20262 | 9.63150 | 37396 ft | 507 kts | 91° |
| 2026-05-05 20:02 | 44.20362 | 9.67622 | 37825 ft | 506 kts | 91° |
| 2026-05-05 20:02 | 44.20467 | 9.72380 | 37958 ft | 504 kts | 91° |
| 2026-05-05 20:02 | 44.20564 | 9.76838 | 37978 ft | 502 kts | 91° |
| 2026-05-05 20:03 | 44.20761 | 9.86162 | 37979 ft | 501 kts | 91° |
| 2026-05-05 20:03 | 44.20952 | 9.95867 | 37975 ft | 501 kts | 91° |
| 2026-05-05 20:04 | 44.21130 | 10.05141 | 37978 ft | 501 kts | 91° |
| 2026-05-05 20:04 | 44.21315 | 10.14487 | 37983 ft | 503 kts | 91° |
| 2026-05-05 20:05 | 44.21485 | 10.24196 | 37998 ft | 506 kts | 91° |
| 2026-05-05 20:05 | 44.21637 | 10.33690 | 38022 ft | 506 kts | 91° |
| 2026-05-05 20:06 | 44.21786 | 10.43061 | 38048 ft | 507 kts | 91° |
| 2026-05-05 20:06 | 44.21928 | 10.52474 | 38057 ft | 507 kts | 91° |
| 2026-05-05 20:07 | 44.22055 | 10.61838 | 38065 ft | 507 kts | 92° |
| 2026-05-05 20:07 | 44.22184 | 10.71734 | 38074 ft | 508 kts | 91° |
| 2026-05-05 20:08 | 44.22308 | 10.81195 | 38073 ft | 508 kts | 91° |
| 2026-05-05 20:08 | 44.22424 | 10.90579 | 38069 ft | 509 kts | 92° |
| 2026-05-05 20:09 | 44.22529 | 11.00020 | 38064 ft | 509 kts | 92° |
| 2026-05-05 20:09 | 44.22622 | 11.09450 | 38050 ft | 509 kts | 92° |
| 2026-05-05 20:10 | 44.22699 | 11.19337 | 38039 ft | 509 kts | 92° |
| 2026-05-05 20:10 | 44.22781 | 11.29208 | 38033 ft | 509 kts | 92° |
| 2026-05-05 20:11 | 44.22871 | 11.39079 | 38031 ft | 509 kts | 91° |
| 2026-05-05 20:11 | 44.22940 | 11.48524 | 38034 ft | 508 kts | 91° |
| 2026-05-05 20:12 | 44.22994 | 11.58039 | 38033 ft | 508 kts | 91° |
| 2026-05-05 20:12 | 44.23035 | 11.67878 | 38031 ft | 507 kts | 91° |
| 2026-05-05 20:13 | 44.23067 | 11.76049 | 38024 ft | 507 kts | 91° |
| 2026-05-05 20:13 | 44.23105 | 11.85856 | 38017 ft | 506 kts | 91° |
| 2026-05-05 20:14 | 44.23137 | 11.95667 | 38016 ft | 505 kts | 91° |
| 2026-05-05 20:14 | 44.23150 | 12.05042 | 38020 ft | 505 kts | 91° |
| 2026-05-05 20:15 | 44.23153 | 12.14426 | 38019 ft | 504 kts | 91° |
| 2026-05-05 20:15 | 44.23150 | 12.24207 | 38021 ft | 503 kts | 91° |
| 2026-05-05 20:16 | 44.23143 | 12.33957 | 38016 ft | 503 kts | 91° |
| 2026-05-05 20:16 | 44.23131 | 12.43694 | 38027 ft | 502 kts | 91° |
| 2026-05-05 20:17 | 44.23108 | 12.53003 | 38016 ft | 502 kts | 91° |
| 2026-05-05 20:17 | 44.23078 | 12.62349 | 38027 ft | 501 kts | 91° |
| 2026-05-05 20:18 | 44.23044 | 12.72056 | 38026 ft | 501 kts | 91° |
| 2026-05-05 20:18 | 44.23001 | 12.81315 | 38021 ft | 500 kts | 91° |
| 2026-05-05 20:19 | 44.22944 | 12.90571 | 38013 ft | 499 kts | 91° |
| 2026-05-05 20:19 | 44.22874 | 13.00244 | 38002 ft | 499 kts | 91° |
| 2026-05-05 20:20 | 44.22802 | 13.09919 | 38007 ft | 498 kts | 91° |
| 2026-05-05 20:20 | 44.22727 | 13.19557 | 38011 ft | 497 kts | 91° |
| 2026-05-05 20:21 | 44.22643 | 13.29200 | 38015 ft | 497 kts | 91° |
| 2026-05-05 20:21 | 44.22555 | 13.38423 | 38015 ft | 496 kts | 91° |
| 2026-05-05 20:22 | 44.22450 | 13.48049 | 38020 ft | 496 kts | 91° |
| 2026-05-05 20:22 | 44.22338 | 13.57654 | 38021 ft | 495 kts | 91° |
| 2026-05-05 20:23 | 44.22236 | 13.67255 | 38022 ft | 495 kts | 88° |
| 2026-05-05 20:23 | 44.22514 | 13.71614 | 38159 ft | 494 kts | 80° |
| 2026-05-05 20:23 | 44.23027 | 13.76336 | 38716 ft | 492 kts | 81° |
| 2026-05-05 20:23 | 44.23487 | 13.80660 | 38940 ft | 492 kts | 81° |
| 2026-05-05 20:24 | 44.23978 | 13.85366 | 39010 ft | 490 kts | 81° |
| 2026-05-05 20:24 | 44.24895 | 13.94381 | 39016 ft | 489 kts | 81° |
| 2026-05-05 20:25 | 44.25846 | 14.03790 | 39017 ft | 489 kts | 81° |
| 2026-05-05 20:25 | 44.26759 | 14.12827 | 39022 ft | 489 kts | 81° |
| 2026-05-05 20:26 | 44.27666 | 14.21804 | 39030 ft | 489 kts | 81° |
| 2026-05-05 20:26 | 44.28574 | 14.30827 | 39033 ft | 489 kts | 81° |
| 2026-05-05 20:27 | 44.29511 | 14.40235 | 39039 ft | 490 kts | 81° |
| 2026-05-05 20:27 | 44.30397 | 14.49281 | 39042 ft | 490 kts | 81° |
| 2026-05-05 20:28 | 44.31270 | 14.58279 | 39047 ft | 490 kts | 81° |
| 2026-05-05 20:28 | 44.32138 | 14.67298 | 39051 ft | 490 kts | 81° |
| 2026-05-05 20:29 | 44.33004 | 14.76307 | 39056 ft | 490 kts | 81° |
| 2026-05-05 20:29 | 44.33896 | 14.85690 | 39059 ft | 491 kts | 81° |
| 2026-05-05 20:30 | 44.34750 | 14.94754 | 39061 ft | 491 kts | 81° |
| 2026-05-05 20:30 | 44.35602 | 15.03828 | 39063 ft | 492 kts | 81° |
| 2026-05-05 20:31 | 44.36449 | 15.12957 | 39068 ft | 492 kts | 81° |
| 2026-05-05 20:31 | 44.37279 | 15.22090 | 39070 ft | 493 kts | 81° |
| 2026-05-05 20:32 | 44.38142 | 15.31599 | 39070 ft | 493 kts | 82° |
| 2026-05-05 20:32 | 44.38978 | 15.40758 | 39074 ft | 492 kts | 82° |
| 2026-05-05 20:33 | 44.39792 | 15.49834 | 39082 ft | 491 kts | 82° |
| 2026-05-05 20:33 | 44.40592 | 15.58975 | 39091 ft | 490 kts | 82° |
| 2026-05-05 20:34 | 44.41378 | 15.68027 | 39097 ft | 489 kts | 82° |
| 2026-05-05 20:34 | 44.42192 | 15.77464 | 39096 ft | 488 kts | 82° |
| 2026-05-05 20:35 | 44.42970 | 15.86547 | 39089 ft | 487 kts | 82° |
| 2026-05-05 20:35 | 44.43742 | 15.95589 | 39095 ft | 487 kts | 82° |
| 2026-05-05 20:36 | 44.44504 | 16.04571 | 39090 ft | 486 kts | 82° |
| 2026-05-05 20:36 | 44.45262 | 16.13621 | 39094 ft | 486 kts | 82° |
| 2026-05-05 20:37 | 44.46037 | 16.23015 | 39086 ft | 486 kts | 82° |
| 2026-05-05 20:37 | 44.46775 | 16.32081 | 39089 ft | 486 kts | 82° |
| 2026-05-05 20:38 | 44.47519 | 16.41116 | 39082 ft | 486 kts | 82° |
| 2026-05-05 20:38 | 44.48248 | 16.50167 | 39080 ft | 486 kts | 83° |
| 2026-05-05 20:39 | 44.48989 | 16.59570 | 39074 ft | 486 kts | 83° |
| 2026-05-05 20:39 | 44.49701 | 16.68589 | 39073 ft | 486 kts | 83° |
| 2026-05-05 20:40 | 44.50403 | 16.77631 | 39069 ft | 486 kts | 83° |
| 2026-05-05 20:40 | 44.51091 | 16.86638 | 39069 ft | 486 kts | 83° |
| 2026-05-05 20:41 | 44.51773 | 16.95655 | 39060 ft | 486 kts | 83° |
| 2026-05-05 20:41 | 44.52486 | 17.05067 | 39061 ft | 485 kts | 83° |
| 2026-05-05 20:42 | 44.53158 | 17.14048 | 39061 ft | 485 kts | 84° |
| 2026-05-05 20:42 | 44.53830 | 17.23114 | 39059 ft | 485 kts | 84° |
| 2026-05-05 20:43 | 44.54483 | 17.32057 | 39061 ft | 485 kts | 84° |
| 2026-05-05 20:43 | 44.55124 | 17.41043 | 39056 ft | 484 kts | 84° |
| 2026-05-05 20:44 | 44.55775 | 17.50235 | 39046 ft | 484 kts | 84° |
| 2026-05-05 20:44 | 44.56427 | 17.59459 | 39043 ft | 484 kts | 84° |
| 2026-05-05 20:45 | 44.57364 | 17.72924 | 39037 ft | 484 kts | 84° |
| 2026-05-05 20:45 | 44.58000 | 17.82165 | 39031 ft | 484 kts | 84° |
| 2026-05-05 20:46 | 44.58613 | 17.91179 | 39027 ft | 484 kts | 84° |
| 2026-05-05 20:46 | 44.59214 | 18.00224 | 39024 ft | 484 kts | 84° |
| 2026-05-05 20:47 | 44.59828 | 18.09482 | 39025 ft | 484 kts | 84° |
| 2026-05-05 20:47 | 44.60430 | 18.18618 | 39024 ft | 484 kts | 84° |
| 2026-05-05 20:48 | 44.61011 | 18.27676 | 39020 ft | 483 kts | 84° |
| 2026-05-05 20:48 | 44.61581 | 18.36757 | 39025 ft | 483 kts | 84° |
| 2026-05-05 20:49 | 44.62147 | 18.45764 | 39032 ft | 483 kts | 84° |
| 2026-05-05 20:49 | 44.62716 | 18.54933 | 39033 ft | 483 kts | 84° |
| 2026-05-05 20:50 | 44.63183 | 18.62627 | 39037 ft | 483 kts | 84° |
| 2026-05-05 20:50 | 44.63823 | 18.73216 | 39034 ft | 483 kts | 84° |
| 2026-05-05 20:51 | 44.64363 | 18.82214 | 39030 ft | 483 kts | 84° |
| 2026-05-05 20:51 | 44.64897 | 18.91277 | 39028 ft | 482 kts | 84° |
| 2026-05-05 20:52 | 44.65441 | 19.00658 | 39023 ft | 482 kts | 84° |
| 2026-05-05 20:52 | 44.65957 | 19.09633 | 39013 ft | 482 kts | 84° |
| 2026-05-05 20:53 | 44.66473 | 19.18678 | 39006 ft | 482 kts | 84° |
| 2026-05-05 20:53 | 44.66994 | 19.28056 | 39006 ft | 481 kts | 84° |
| 2026-05-05 20:54 | 44.67507 | 19.37438 | 39005 ft | 481 kts | 84° |
| 2026-05-05 20:54 | 44.68007 | 19.46801 | 39008 ft | 481 kts | 84° |
| 2026-05-05 20:55 | 44.68499 | 19.56168 | 39005 ft | 480 kts | 84° |
| 2026-05-05 20:55 | 44.68975 | 19.65204 | 39004 ft | 480 kts | 84° |
| 2026-05-05 20:56 | 44.69436 | 19.74205 | 39002 ft | 480 kts | 84° |
| 2026-05-05 20:56 | 44.69886 | 19.83144 | 39005 ft | 479 kts | 84° |
| 2026-05-05 20:57 | 44.70354 | 19.92479 | 39003 ft | 479 kts | 84° |
| 2026-05-05 20:57 | 44.70810 | 20.01826 | 39003 ft | 479 kts | 85° |
| 2026-05-05 20:58 | 44.71239 | 20.10823 | 39001 ft | 479 kts | 84° |
| 2026-05-05 20:58 | 44.71670 | 20.19803 | 38995 ft | 479 kts | 85° |
| 2026-05-05 20:59 | 44.72021 | 20.27237 | 38994 ft | 479 kts | 85° |
| 2026-05-05 20:59 | 44.72432 | 20.36238 | 38995 ft | 479 kts | 85° |
| 2026-05-05 21:00 | 44.72854 | 20.45577 | 38998 ft | 478 kts | 85° |
| 2026-05-05 21:00 | 44.73251 | 20.54531 | 38997 ft | 478 kts | 85° |
| 2026-05-05 21:01 | 44.73641 | 20.63502 | 39000 ft | 478 kts | 85° |
| 2026-05-05 21:01 | 44.74028 | 20.72449 | 39007 ft | 477 kts | 85° |
| 2026-05-05 21:02 | 44.74419 | 20.81764 | 39001 ft | 477 kts | 85° |
| 2026-05-05 21:02 | 44.74798 | 20.91080 | 39002 ft | 477 kts | 85° |
| 2026-05-05 21:03 | 44.75176 | 21.00392 | 38996 ft | 477 kts | 85° |
| 2026-05-05 21:03 | 44.75547 | 21.09718 | 38992 ft | 477 kts | 85° |
| 2026-05-05 21:04 | 44.75897 | 21.18674 | 38993 ft | 477 kts | 85° |
| 2026-05-05 21:04 | 44.76252 | 21.27995 | 38991 ft | 477 kts | 85° |
| 2026-05-05 21:05 | 44.76597 | 21.37306 | 38996 ft | 477 kts | 86° |
| 2026-05-05 21:05 | 44.76931 | 21.46619 | 39003 ft | 476 kts | 86° |
| 2026-05-05 21:06 | 44.77241 | 21.55882 | 39006 ft | 476 kts | 86° |
| 2026-05-05 21:06 | 44.77373 | 21.64851 | 39011 ft | 476 kts | 88° |
| 2026-05-05 21:07 | 44.77408 | 21.74172 | 39021 ft | 476 kts | 88° |
| 2026-05-05 21:07 | 44.77445 | 21.83120 | 39026 ft | 475 kts | 88° |
| 2026-05-05 21:08 | 44.77514 | 21.92040 | 39029 ft | 475 kts | 88° |
| 2026-05-05 21:08 | 44.77589 | 22.01320 | 39036 ft | 474 kts | 88° |
| 2026-05-05 21:09 | 44.77653 | 22.10215 | 39038 ft | 473 kts | 88° |
| 2026-05-05 21:09 | 44.77705 | 22.19105 | 39043 ft | 473 kts | 88° |
| 2026-05-05 21:10 | 44.77746 | 22.28018 | 39044 ft | 472 kts | 88° |
| 2026-05-05 21:10 | 44.77773 | 22.37253 | 39043 ft | 471 kts | 88° |
| 2026-05-05 21:11 | 44.77805 | 22.46117 | 39042 ft | 471 kts | 88° |
| 2026-05-05 21:11 | 44.77830 | 22.55012 | 39048 ft | 470 kts | 88° |
| 2026-05-05 21:12 | 44.77848 | 22.64208 | 39047 ft | 470 kts | 88° |
| 2026-05-05 21:12 | 44.77857 | 22.72998 | 39046 ft | 469 kts | 88° |
| 2026-05-05 21:13 | 44.77851 | 22.81843 | 39043 ft | 469 kts | 88° |
| 2026-05-05 21:13 | 44.77845 | 22.90750 | 39046 ft | 468 kts | 88° |
| 2026-05-05 21:14 | 44.77839 | 22.99748 | 39042 ft | 468 kts | 88° |
| 2026-05-05 21:14 | 44.77820 | 23.08896 | 39041 ft | 467 kts | 89° |
| 2026-05-05 21:15 | 44.77788 | 23.17673 | 39043 ft | 467 kts | 88° |
| 2026-05-05 21:15 | 44.77755 | 23.26804 | 39045 ft | 466 kts | 89° |
| 2026-05-05 21:16 | 44.77713 | 23.35549 | 39040 ft | 465 kts | 89° |
| 2026-05-05 21:16 | 44.77667 | 23.44287 | 39041 ft | 465 kts | 89° |
| 2026-05-05 21:17 | 44.77620 | 23.53045 | 38992 ft | 465 kts | 89° |
| 2026-05-05 21:17 | 44.77592 | 23.57601 | 38613 ft | 463 kts | 89° |
| 2026-05-05 21:17 | 44.77561 | 23.61765 | 38348 ft | 459 kts | 89° |
| 2026-05-05 21:18 | 44.77524 | 23.66253 | 38057 ft | 458 kts | 89° |
| 2026-05-05 21:18 | 44.77485 | 23.70730 | 37789 ft | 458 kts | 89° |
| 2026-05-05 21:18 | 44.77449 | 23.74846 | 37534 ft | 458 kts | 89° |
| 2026-05-05 21:18 | 44.77408 | 23.79320 | 37264 ft | 459 kts | 89° |
| 2026-05-05 21:19 | 44.77370 | 23.83455 | 37017 ft | 459 kts | 88° |
| 2026-05-05 21:19 | 44.77332 | 23.87945 | 36756 ft | 459 kts | 88° |
| 2026-05-05 21:19 | 44.77294 | 23.92338 | 36484 ft | 460 kts | 88° |
| 2026-05-05 21:19 | 44.77257 | 23.96524 | 36255 ft | 460 kts | 88° |
| 2026-05-05 21:20 | 44.77212 | 24.01037 | 36000 ft | 461 kts | 88° |
| 2026-05-05 21:20 | 44.77167 | 24.05220 | 35765 ft | 461 kts | 88° |
| 2026-05-05 21:20 | 44.77115 | 24.09739 | 35513 ft | 461 kts | 88° |
| 2026-05-05 21:20 | 44.77061 | 24.14234 | 34630 ft | 466 kts | 88° |
| 2026-05-05 21:21 | 44.77010 | 24.18527 | 33662 ft | 471 kts | 88° |
| 2026-05-05 21:21 | 44.76954 | 24.23159 | 32484 ft | 476 kts | 88° |
| 2026-05-05 21:21 | 44.76899 | 24.27452 | 31430 ft | 479 kts | 88° |
| 2026-05-05 21:21 | 44.76833 | 24.32138 | 30459 ft | 479 kts | 88° |
| 2026-05-05 21:22 | 44.76767 | 24.36632 | 29264 ft | 481 kts | 88° |
| 2026-05-05 21:22 | 44.76700 | 24.41182 | 27968 ft | 483 kts | 88° |
| 2026-05-05 21:22 | 44.76632 | 24.45883 | 26677 ft | 483 kts | 88° |
| 2026-05-05 21:22 | 44.76566 | 24.50274 | 25669 ft | 478 kts | 88° |
| 2026-05-05 21:23 | 44.76493 | 24.54934 | 24543 ft | 475 kts | 89° |
| 2026-05-05 21:23 | 44.76425 | 24.59171 | 23626 ft | 469 kts | 89° |
| 2026-05-05 21:23 | 44.76353 | 24.63727 | 22483 ft | 462 kts | 89° |
| 2026-05-05 21:23 | 44.76284 | 24.68082 | 21402 ft | 454 kts | 89° |
| 2026-05-05 21:24 | 44.76216 | 24.72199 | 20448 ft | 448 kts | 89° |
| 2026-05-05 21:24 | 44.76142 | 24.76531 | 19388 ft | 435 kts | 90° |
| 2026-05-05 21:24 | 44.76073 | 24.80419 | 17946 ft | 422 kts | 90° |
| 2026-05-05 21:24 | 44.75996 | 24.84415 | 17207 ft | 392 kts | 90° |
| 2026-05-05 21:25 | 44.75926 | 24.88104 | 16623 ft | 366 kts | 90° |
| 2026-05-05 21:25 | 44.75866 | 24.91431 | 15989 ft | 372 kts | 90° |
| 2026-05-05 21:25 | 44.75801 | 24.95055 | 15265 ft | 368 kts | 90° |
| 2026-05-05 21:25 | 44.75741 | 24.98385 | 14662 ft | 364 kts | 90° |
| 2026-05-05 21:26 | 44.75675 | 25.01853 | 14503 ft | 344 kts | 90° |
| 2026-05-05 21:26 | 44.75608 | 25.05103 | 14166 ft | 322 kts | 90° |
| 2026-05-05 21:26 | 44.75548 | 25.08019 | 13944 ft | 323 kts | 90° |
| 2026-05-05 21:26 | 44.75482 | 25.11165 | 13698 ft | 322 kts | 90° |
| 2026-05-05 21:27 | 44.75424 | 25.14111 | 13455 ft | 321 kts | 90° |
| 2026-05-05 21:27 | 44.75222 | 25.17243 | 13189 ft | 321 kts | 99° |
| 2026-05-05 21:27 | 44.74766 | 25.20279 | 12934 ft | 321 kts | 100° |
| 2026-05-05 21:27 | 44.74295 | 25.23370 | 12675 ft | 319 kts | 100° |
| 2026-05-05 21:28 | 44.73836 | 25.26377 | 12418 ft | 318 kts | 100° |
| 2026-05-05 21:28 | 44.73374 | 25.29408 | 12164 ft | 317 kts | 100° |
| 2026-05-05 21:28 | 44.72946 | 25.32213 | 11927 ft | 316 kts | 100° |
| 2026-05-05 21:28 | 44.72487 | 25.35219 | 11671 ft | 315 kts | 100° |
| 2026-05-05 21:29 | 44.72025 | 25.38230 | 11425 ft | 314 kts | 100° |
| 2026-05-05 21:29 | 44.71565 | 25.41224 | 11177 ft | 313 kts | 100° |
| 2026-05-05 21:29 | 44.71217 | 25.44239 | 10932 ft | 311 kts | 91° |
| 2026-05-05 21:29 | 44.71302 | 25.47256 | 10686 ft | 308 kts | 81° |
| 2026-05-05 21:30 | 44.71553 | 25.50236 | 10445 ft | 308 kts | 81° |
| 2026-05-05 21:30 | 44.71801 | 25.53234 | 10204 ft | 307 kts | 81° |
| 2026-05-05 21:30 | 44.72024 | 25.55969 | 9990 ft | 304 kts | 81° |
| 2026-05-05 21:30 | 44.72253 | 25.58855 | 9857 ft | 290 kts | 81° |
| 2026-05-05 21:31 | 44.72470 | 25.61621 | 9721 ft | 283 kts | 81° |
| 2026-05-05 21:31 | 44.72688 | 25.64390 | 9583 ft | 284 kts | 81° |
| 2026-05-05 21:31 | 44.72887 | 25.66950 | 9470 ft | 284 kts | 81° |
| 2026-05-05 21:31 | 44.73103 | 25.69708 | 9338 ft | 284 kts | 81° |
| 2026-05-05 21:32 | 44.73314 | 25.72354 | 9214 ft | 284 kts | 81° |
| 2026-05-05 21:32 | 44.73428 | 25.75037 | 9088 ft | 285 kts | 94° |
| 2026-05-05 21:32 | 44.72787 | 25.77531 | 8953 ft | 272 kts | 123° |
| 2026-05-05 21:32 | 44.71526 | 25.79175 | 8838 ft | 273 kts | 150° |
| 2026-05-05 21:33 | 44.69720 | 25.79926 | 8721 ft | 273 kts | 173° |
| 2026-05-05 21:33 | 44.67829 | 25.80212 | 8588 ft | 273 kts | 175° |
| 2026-05-05 21:33 | 44.65963 | 25.79900 | 8453 ft | 271 kts | 203° |
| 2026-05-05 21:33 | 44.64445 | 25.78421 | 8327 ft | 266 kts | 232° |
| 2026-05-05 21:34 | 44.63597 | 25.76179 | 8201 ft | 260 kts | 259° |
| 2026-05-05 21:34 | 44.63317 | 25.73875 | 8086 ft | 259 kts | 265° |
| 2026-05-05 21:34 | 44.63104 | 25.71371 | 7963 ft | 257 kts | 266° |
| 2026-05-05 21:34 | 44.62936 | 25.69088 | 7875 ft | 257 kts | 266° |
| 2026-05-05 21:35 | 44.62756 | 25.66595 | 7760 ft | 256 kts | 266° |
| 2026-05-05 21:35 | 44.62571 | 25.64113 | 7602 ft | 255 kts | 266° |
| 2026-05-05 21:35 | 44.62401 | 25.61862 | 7446 ft | 253 kts | 266° |
| 2026-05-05 21:35 | 44.62212 | 25.59412 | 7275 ft | 252 kts | 266° |
| 2026-05-05 21:36 | 44.62040 | 25.57188 | 7112 ft | 251 kts | 265° |
| 2026-05-05 21:36 | 44.61847 | 25.54737 | 6927 ft | 249 kts | 265° |
| 2026-05-05 21:36 | 44.61655 | 25.52331 | 6745 ft | 248 kts | 265° |
| 2026-05-05 21:36 | 44.61470 | 25.50112 | 6580 ft | 247 kts | 263° |
| 2026-05-05 21:37 | 44.60818 | 25.47925 | 6408 ft | 246 kts | 232° |
| 2026-05-05 21:37 | 44.59572 | 25.46668 | 6227 ft | 246 kts | 201° |
| 2026-05-05 21:37 | 44.57863 | 25.46496 | 6021 ft | 247 kts | 174° |
| 2026-05-05 21:37 | 44.56180 | 25.46812 | 5829 ft | 247 kts | 175° |
| 2026-05-05 21:38 | 44.54608 | 25.47097 | 5639 ft | 247 kts | 170° |
| 2026-05-05 21:38 | 44.53078 | 25.48138 | 5445 ft | 248 kts | 138° |
| 2026-05-05 21:38 | 44.52214 | 25.49980 | 5277 ft | 247 kts | 107° |
| 2026-05-05 21:38 | 44.52141 | 25.52346 | 5106 ft | 245 kts | 75° |
| 2026-05-05 21:39 | 44.52543 | 25.54666 | 4919 ft | 246 kts | 79° |
| 2026-05-05 21:39 | 44.52757 | 25.57039 | 4747 ft | 245 kts | 84° |
| 2026-05-05 21:39 | 44.52892 | 25.59417 | 4555 ft | 245 kts | 85° |
| 2026-05-05 21:39 | 44.53017 | 25.61796 | 4392 ft | 245 kts | 85° |
| 2026-05-05 21:40 | 44.53155 | 25.64163 | 4212 ft | 244 kts | 84° |
| 2026-05-05 21:40 | 44.53310 | 25.66525 | 4044 ft | 243 kts | 84° |
| 2026-05-05 21:40 | 44.53478 | 25.68878 | 3879 ft | 242 kts | 84° |
| 2026-05-05 21:40 | 44.53704 | 25.71212 | 3727 ft | 239 kts | 76° |
| 2026-05-05 21:41 | 44.54095 | 25.73420 | 3630 ft | 228 kts | 75° |
| 2026-05-05 21:41 | 44.54465 | 25.75529 | 3538 ft | 218 kts | 76° |
| 2026-05-05 21:41 | 44.54819 | 25.77547 | 3447 ft | 208 kts | 76° |
| 2026-05-05 21:41 | 44.55157 | 25.79470 | 3353 ft | 199 kts | 75° |
| 2026-05-05 21:42 | 44.55483 | 25.81321 | 3265 ft | 193 kts | 76° |
| 2026-05-05 21:42 | 44.55803 | 25.83133 | 3173 ft | 190 kts | 76° |
| 2026-05-05 21:42 | 44.56042 | 25.84927 | 3053 ft | 183 kts | 85° |
| 2026-05-05 21:42 | 44.56144 | 25.86642 | 2927 ft | 170 kts | 86° |
| 2026-05-05 21:43 | 44.56227 | 25.88174 | 2842 ft | 148 kts | 86° |
| 2026-05-05 21:43 | 44.56300 | 25.89553 | 2734 ft | 138 kts | 86° |
| 2026-05-05 21:43 | 44.56372 | 25.90886 | 2645 ft | 135 kts | 86° |
| 2026-05-05 21:43 | 44.56442 | 25.92193 | 2586 ft | 134 kts | 86° |
| 2026-05-05 21:44 | 44.56510 | 25.93376 | 2525 ft | 134 kts | 85° |
| 2026-05-05 21:44 | 44.56608 | 25.94676 | 2311 ft | 133 kts | 85° |
| 2026-05-05 21:44 | 44.56706 | 25.95956 | 2107 ft | 132 kts | 86° |
| 2026-05-05 21:44 | 44.56803 | 25.97217 | 1920 ft | 131 kts | 86° |
| 2026-05-05 21:45 | 44.56901 | 25.98483 | 1742 ft | 130 kts | 87° |
| 2026-05-05 21:45 | 44.56999 | 25.99762 | 1564 ft | 130 kts | 86° |
| 2026-05-05 21:45 | 44.57095 | 26.01016 | 1385 ft | 129 kts | 86° |
| 2026-05-05 21:45 | 44.57189 | 26.02240 | 1218 ft | 127 kts | 86° |
| 2026-05-05 21:46 | 44.57282 | 26.03444 | 1055 ft | 125 kts | 85° |
| 2026-05-05 21:46 | 44.57374 | 26.04645 | 890 ft | 123 kts | 84° |
| 2026-05-05 21:46 | 44.57464 | 26.05825 | 728 ft | 121 kts | 83° |
| 2026-05-05 21:46 | 44.57553 | 26.06991 | 569 ft | 120 kts | 82° |
| 2026-05-05 21:47 | 44.57642 | 26.08153 | 403 ft | 119 kts | 83° |
| 2026-05-05 21:47 | 44.57733 | 26.09275 | 322 ft | 100 kts | 84° |
| 2026-05-05 21:47 | 44.57792 | 26.10039 | 322 ft | 67 kts | 85° |
| 2026-05-05 21:47 | 44.57837 | 26.10642 | 322 ft | 56 kts | 84° |
| 2026-05-05 21:48 | 44.57806 | 26.10986 | 323 ft | 53 kts | 110° |
| 2026-05-05 21:48 | 44.57736 | 26.11174 | 323 ft | 1 kts | 151° |
| 2026-05-05 21:48 | 44.57733 | 26.11176 | 323 ft | 3 kts | 151° |